Latest Weather Observations for Georgetown Airport

IDQ60801

Issued at 9:35 pm EST Wednesday 23 July 2014 (issued every 30 minutes, with the page automatically refreshed every 10 minutes)

About weather observations | Map of weather stations | Latest weather observations for QLD | Other Formats
Station Details ID: 030124 Name: GEORGETOWN AIRPORT Lat: -18.30 Lon: 143.53 Height: 301.77 m
Data from the previous 72 hours. | See also: Recent months at Georgetown Airport
Date/Time
EST
Temp
°C
App
Temp
°C
Dew
Point
Rel
Hum
%
Delta-T
°C
Wind Press
QNH
hPa
Press
MSL
hPa
Rain
since 9 am
mm
Dir
 
Spd
km/h
Gust
km/h
Spd
kts
Gust
kts
23/09:30pm 14.2 12.5 1.8 43 5.5 ESE 0 0 0 0 1016.3 - 0.0
23/09:00pm 14.4 12.7 1.7 42 5.6 ESE 0 6 0 3 1016.1 1015.1 0.0
23/08:30pm 15.8 14.0 1.2 37 6.5 CALM 0 0 0 0 1015.9 - 0.0
23/08:00pm 16.8 15.1 1.7 36 6.8 CALM 0 0 0 0 1015.6 - 0.0
23/07:30pm 18.2 15.8 2.1 34 7.4 WSW 4 13 2 7 1015.4 - 0.0
23/07:00pm 19.6 16.8 2.0 31 8.2 W 6 6 3 3 1015.2 - 0.0
23/06:30pm 21.7 18.7 1.9 27 9.4 WNW 7 7 4 4 1015.0 - 0.0
23/06:00pm 25.4 22.1 2.2 22 11.3 WNW 9 11 5 6 1014.8 1013.7 0.0
23/05:30pm 27.2 24.3 1.6 19 12.5 NW 6 9 3 5 1014.6 - 0.0
23/05:00pm 27.5 24.5 1.8 19 12.6 WNW 7 13 4 7 1014.3 - 0.0
23/04:30pm 27.3 23.9 1.7 19 12.5 N 9 15 5 8 1014.2 - 0.0
23/04:00pm 27.8 24.8 2.1 19 12.7 NNW 7 13 4 7 1014.2 - 0.0
23/03:30pm 28.0 24.2 1.5 18 13.0 N 11 19 6 10 1014.2 - 0.0
23/03:00pm 27.1 23.6 1.5 19 12.5 NNW 9 15 5 8 1014.3 1013.3 0.0
23/02:30pm 26.8 23.8 2.0 20 12.2 S 7 11 4 6 1014.7 - 0.0
23/02:00pm 27.3 23.2 2.4 20 12.3 N 13 19 7 10 1015.0 - 0.0
23/01:30pm 26.4 23.4 2.3 21 11.9 NW 7 13 4 7 1015.5 - 0.0
23/01:00pm 26.0 22.4 2.7 22 11.5 N 11 19 6 10 1016.0 - 0.0
23/12:30pm 25.2 22.0 3.2 24 10.9 NNE 9 19 5 10 1016.6 - 0.0
23/12:00pm 24.8 20.9 3.5 25 10.6 NE 13 20 7 11 1017.2 1016.2 0.0
23/11:30am 23.8 20.2 5.2 30 9.5 NE 13 20 7 11 1017.8 - 0.0
23/11:00am 23.6 19.7 5.5 31 9.3 ENE 15 24 8 13 1018.3 - 0.0
23/10:30am 22.9 18.7 5.8 33 8.8 NE 17 26 9 14 1018.6 - 0.0
23/10:00am 21.9 18.5 7.7 40 7.5 ENE 15 26 8 14 1018.8 - 0.0
23/09:30am 20.3 17.7 7.7 44 6.6 ENE 11 20 6 11 1018.9 - 0.0
23/09:00am 19.4 17.8 7.8 47 6.0 E 6 11 3 6 1018.9 1017.9 0.0
23/08:30am 16.8 15.1 8.2 57 4.4 SSE 7 11 4 6 1018.8 - 0.0
23/08:00am 14.3 12.7 8.0 66 3.2 SSE 6 9 3 5 1018.6 - 0.0
23/07:30am 10.8 8.8 7.3 79 1.7 S 7 11 4 6 1018.5 - 0.0
23/07:00am 10.5 7.8 7.2 80 1.6 SSW 11 13 6 7 1018.3 - 0.0
23/06:30am 9.1 6.8 5.8 80 1.5 SW 7 9 4 5 1017.7 - 0.0
23/06:00am 9.8 8.0 7.2 84 1.2 WSW 6 7 3 4 1017.3 1016.3 0.0
23/05:30am 10.1 9.0 6.8 80 1.6 E 2 7 1 4 1016.8 - 0.0
23/05:00am 10.5 9.6 6.1 74 2.1 CALM 0 0 0 0 1016.5 - 0.0
23/04:30am 11.2 10.2 5.5 68 2.7 CALM 0 6 0 3 1016.4 - 0.0
23/04:00am 13.2 11.4 7.2 67 3.0 NE 6 7 3 4 1016.5 - 0.0
23/03:30am 14.9 12.8 8.4 65 3.3 NE 9 11 5 6 1016.5 - 0.0
23/03:00am 15.3 13.0 7.6 60 3.9 ENE 9 11 5 6 1016.5 1015.5 0.0
23/02:30am 16.6 14.1 8.1 57 4.4 NNE 11 15 6 8 1016.6 - 0.0
23/02:00am 16.7 13.6 7.4 54 4.7 NNE 13 17 7 9 1016.5 - 0.0
23/01:30am 13.3 9.7 5.0 57 3.9 E 13 19 7 10 1016.6 - 0.0
23/01:00am 14.2 12.2 6.1 58 3.9 NE 6 9 3 5 1016.8 - 0.0
23/12:30am 13.3 10.5 3.4 51 4.5 NE 7 15 4 8 1016.6 - 0.0
23/12:00am 11.3 9.4 0.7 48 4.5 CALM 0 0 0 0 1016.7 1015.7 0.0
 
Date/Time
EST
Temp
°C
App
Temp
°C
Dew
Point
Rel
Hum
%
Delta-T
°C
Wind Press
QNH
hPa
Press
MSL
hPa
Rain
since 9 am
mm
Dir
 
Spd
km/h
Gust
km/h
Spd
kts
Gust
kts
22/11:30pm 11.9 10.0 0.4 45 4.8 CALM 0 4 0 2 1016.6 - 0.0
22/11:00pm 11.5 9.6 0.3 46 4.7 CALM 0 0 0 0 1016.7 - 0.0
22/10:30pm 12.9 10.9 0.0 41 5.4 CALM 0 0 0 0 1016.5 - 0.0
22/10:00pm 13.7 11.7 0.0 39 5.8 CALM 0 0 0 0 1016.5 - 0.0
22/09:30pm 13.7 10.3 -0.7 37 6.0 SSW 7 9 4 5 1016.5 - 0.0
22/09:00pm 16.0 14.1 0.6 35 6.8 CALM 0 0 0 0 1016.5 1015.5 0.0
22/08:30pm 16.7 14.3 -0.1 32 7.3 SSE 2 7 1 4 1016.3 - 0.0
22/08:00pm 17.9 16.1 1.0 32 7.6 CALM 0 0 0 0 1016.1 - 0.0
22/07:30pm 19.2 16.0 -0.2 27 8.6 E 6 7 3 4 1015.8 - 0.0
22/07:00pm 21.7 18.4 0.3 24 9.8 E 7 9 4 5 1015.5 - 0.0
22/06:30pm 24.9 21.0 1.1 21 11.3 E 11 13 6 7 1015.2 - 0.0
22/06:00pm 27.0 23.7 -0.9 16 13.0 WSW 6 6 3 3 1014.8 1013.7 0.0
22/05:30pm 29.1 26.7 -0.1 15 14.0 ENE 2 7 1 4 1014.6 - 0.0
22/05:00pm 29.0 25.8 -0.2 15 14.0 E 6 11 3 6 1014.3 - 0.0
22/04:30pm 29.4 26.3 0.1 15 14.2 SE 6 11 3 6 1014.5 - 0.0
22/04:00pm 29.0 25.3 -0.2 15 14.0 S 9 15 5 8 1014.5 - 0.0
22/03:30pm 29.6 25.4 -0.7 14 14.5 SE 11 17 6 9 1014.7 - 0.0
22/03:00pm 29.2 25.7 -1.0 14 14.3 SE 7 17 4 9 1014.9 1013.9 0.0
22/02:30pm 28.7 25.2 -1.4 14 14.1 E 7 13 4 7 1015.2 - 0.0
22/02:00pm 28.9 24.7 -1.2 14 14.2 SSE 11 15 6 8 1015.5 - 0.0
22/01:30pm 28.2 24.5 0.0 16 13.5 E 9 20 5 11 1015.9 - 0.0
22/01:00pm 27.7 23.8 1.2 18 12.9 E 11 15 6 8 1016.5 - 0.0
22/12:30pm 27.1 24.3 2.9 21 12.1 S 7 15 4 8 1017.2 - 0.0
22/12:00pm 27.3 24.2 3.7 22 12.0 NE 9 15 5 8 1018.1 1017.1 0.0
22/11:30am 26.3 23.9 4.1 24 11.3 NE 6 9 3 5 1018.6 - 0.0
22/11:00am 25.4 22.9 4.0 25 10.8 NE 6 11 3 6 1019.1 - 0.0
22/10:30am 24.0 21.5 6.7 33 9.1 E 9 13 5 7 1019.3 - 0.0
22/10:00am 22.9 20.8 8.2 39 7.9 E 9 15 5 8 1019.7 - 0.0
22/09:30am 21.1 19.1 8.7 45 6.6 E 9 15 5 8 1019.9 - 0.0
22/09:00am 19.0 17.7 7.8 48 5.8 S 4 9 2 5 1019.8 1018.8 0.0
22/08:30am 16.1 15.4 7.1 55 4.5 CALM 0 0 0 0 1019.4 - 0.0
22/08:00am 12.5 11.1 3.7 55 4.0 CALM 0 0 0 0 1019.4 - 0.0
22/07:30am 7.8 6.2 2.3 68 2.3 CALM 0 0 0 0 1019.2 - 0.0
22/07:00am 6.6 4.8 0.9 67 2.3 CALM 0 0 0 0 1019.1 - 0.0
22/06:30am 6.6 4.7 0.5 65 2.4 CALM 0 0 0 0 1018.9 - 0.0
22/06:00am 6.9 5.1 1.0 66 2.4 CALM 0 2 0 1 1018.5 1017.5 0.0
22/05:30am 6.7 3.4 -0.1 62 2.7 S 7 11 4 6 1018.2 - 0.0
22/05:00am 7.2 5.4 0.9 64 2.6 CALM 0 0 0 0 1018.0 - 0.0
22/04:30am 7.6 5.7 0.3 60 2.9 CALM 0 0 0 0 1018.0 - 0.0
22/04:00am 7.7 4.0 0.0 58 3.1 SSW 9 11 5 6 1018.0 - 0.0
22/03:30am 8.3 6.4 0.5 58 3.2 CALM 0 0 0 0 1017.8 - 0.0
22/03:00am 8.7 6.7 -0.1 54 3.5 CALM 0 0 0 0 1017.8 1016.9 0.0
22/02:30am 8.8 6.8 -0.2 53 3.6 CALM 0 0 0 0 1018.1 - 0.0
22/02:00am 8.9 6.8 -0.7 51 3.8 CALM 0 0 0 0 1018.2 - 0.0
22/01:30am 9.3 5.9 -0.3 51 3.9 S 7 9 4 5 1018.4 - 0.0
22/01:00am 9.2 5.9 -0.1 52 3.8 S 7 13 4 7 1018.6 - 0.0
22/12:30am 9.5 7.5 -0.4 50 4.0 CALM 0 0 0 0 1018.4 - 0.0
22/12:00am 10.0 7.9 -0.5 48 4.2 CALM 0 0 0 0 1018.4 1017.4 0.0
 
Date/Time
EST
Temp
°C
App
Temp
°C
Dew
Point
Rel
Hum
%
Delta-T
°C
Wind Press
QNH
hPa
Press
MSL
hPa
Rain
since 9 am
mm
Dir
 
Spd
km/h
Gust
km/h
Spd
kts
Gust
kts
21/11:30pm 10.7 8.7 -0.4 46 4.5 CALM 0 0 0 0 1018.4 - 0.0
21/11:00pm 11.1 7.7 -0.4 45 4.7 SE 7 9 4 5 1018.5 - 0.0
21/10:30pm 11.7 9.7 -0.4 43 5.0 CALM 0 0 0 0 1018.6 - 0.0
21/10:00pm 12.5 10.4 -1.1 39 5.6 CALM 0 0 0 0 1018.7 - 0.0
21/09:30pm 13.7 11.7 -0.3 38 5.9 CALM 0 6 0 3 1018.6 - 0.0
21/09:00pm 13.2 9.9 -1.5 36 6.0 SSE 6 9 3 5 1018.5 1017.5 0.0
21/08:30pm 16.0 13.6 -0.2 33 7.0 E 2 7 1 4 1018.2 - 0.0
21/08:00pm 16.2 13.4 -0.5 32 7.2 ENE 4 7 2 4 1017.8 - 0.0
21/07:30pm 17.6 14.3 -1.1 28 8.0 WNW 6 7 3 4 1017.4 - 0.0
21/07:00pm 19.8 16.4 -0.8 25 9.1 WNW 7 7 4 4 1017.1 - 0.0
21/06:30pm 22.4 18.7 -0.3 22 10.3 WNW 9 11 5 6 1016.8 - 0.0
21/06:00pm 24.8 20.7 -0.4 19 11.7 W 11 13 6 7 1016.5 1015.5 0.0
21/05:30pm 27.5 23.6 -1.4 15 13.4 W 9 11 5 6 1016.2 - 0.0
21/05:00pm 27.9 23.7 -1.1 15 13.6 WSW 11 17 6 9 1016.0 - 0.0
21/04:30pm 28.3 24.8 -2.7 13 14.1 N 6 11 3 6 1015.8 - 0.0
21/04:00pm 29.0 25.0 -2.2 13 14.4 W 9 15 5 8 1015.8 - 0.0
21/03:30pm 28.7 25.2 -1.4 14 14.1 SSW 7 19 4 10 1015.8 - 0.0
21/03:00pm 28.3 23.7 -0.8 15 13.7 SW 13 20 7 11 1015.9 1014.9 0.0
21/02:30pm 28.1 24.0 -0.1 16 13.5 W 11 17 6 9 1016.1 - 0.0
21/02:00pm 27.1 22.8 0.8 18 12.7 W 13 19 7 10 1016.5 - 0.0
21/01:30pm 26.8 23.7 1.3 19 12.4 S 7 11 4 6 1017.0 - 0.0
21/01:00pm 26.0 23.0 2.0 21 11.7 NW 7 13 4 7 1017.4 - 0.0
21/12:30pm 24.9 22.0 2.4 23 11.0 E 7 17 4 9 1018.1 - 0.0
21/12:00pm 24.3 21.0 2.5 24 10.6 ENE 9 17 5 9 1018.7 1017.7 0.0
21/11:30am 24.0 20.7 4.4 28 9.9 NNE 11 19 6 10 1019.4 - 0.0
21/11:00am 22.3 18.7 2.9 28 9.4 ENE 11 17 6 9 1020.0 - 0.0
21/10:30am 22.3 19.5 5.3 33 8.6 NE 9 17 5 9 1020.2 - 0.0
21/10:00am 20.3 18.1 6.3 40 7.1 NNE 7 13 4 7 1020.6 - 0.0
21/09:30am 18.7 16.0 5.5 42 6.5 NE 9 13 5 7 1020.7 - 0.0
21/09:00am 17.4 16.5 6.0 47 5.6 CALM 0 0 0 0 1020.7 1019.8 0.0
21/08:30am 14.7 13.5 4.4 50 4.8 CALM 0 0 0 0 1020.4 - 0.0
21/08:00am 9.8 8.2 2.2 59 3.3 CALM 0 0 0 0 1020.0 - 0.0
21/07:30am 6.9 4.8 -0.5 59 2.9 CALM 0 0 0 0 1019.7 - 0.0
21/07:00am 5.2 3.0 -1.3 63 2.4 CALM 0 4 0 2 1019.5 - 0.0
21/06:30am 5.3 1.9 -0.5 66 2.2 SSW 7 9 4 5 1019.0 - 0.0
21/06:00am 5.7 2.9 -0.4 65 2.4 SW 4 7 2 4 1018.8 1017.8 0.0
21/05:30am 5.1 1.4 -2.5 58 2.8 SSW 7 11 4 6 1018.3 - 0.0
21/05:00am 6.0 2.6 -2.1 56 3.0 SSW 6 7 3 4 1018.2 - 0.0
21/04:30am 6.7 3.1 -1.9 54 3.2 SW 7 7 4 4 1018.0 - 0.0
21/04:00am 6.5 3.4 -2.9 51 3.4 S 4 6 2 3 1018.0 - 0.0
21/03:30am 7.2 4.8 -3.1 48 3.8 CALM 0 0 0 0 1018.1 - 0.0
21/03:00am 7.2 4.7 -3.6 46 3.9 CALM 0 0 0 0 1018.1 1017.1 0.0
21/02:30am 7.1 4.5 -4.6 43 4.1 CALM 0 0 0 0 1018.1 - 0.0
21/02:00am 7.7 5.1 -4.7 41 4.4 CALM 0 0 0 0 1018.3 - 0.0
21/01:30am 8.4 4.8 -3.4 43 4.4 NE 6 7 3 4 1018.4 - 0.0
21/01:00am 8.2 5.5 -6.3 35 5.0 CALM 0 0 0 0 1018.3 - 0.0
21/12:30am 8.3 5.6 -5.9 36 5.0 CALM 0 0 0 0 1018.4 - 0.0
21/12:00am 9.0 6.3 -6.4 33 5.3 CALM 0 0 0 0 1018.6 1017.6 0.0
 
Date/Time
EST
Temp
°C
App
Temp
°C
Dew
Point
Rel
Hum
%
Delta-T
°C
Wind Press
QNH
hPa
Press
MSL
hPa
Rain
since 9 am
mm
Dir
 
Spd
km/h
Gust
km/h
Spd
kts
Gust
kts
20/11:30pm 9.6 5.8 -5.1 35 5.3 ESE 6 7 3 4 1018.7 - 0.0
20/11:00pm 10.5 6.6 -6.8 29 6.1 SSW 6 7 3 4 1018.7 - 0.0
20/10:30pm 11.0 7.1 -6.3 29 6.2 S 6 7 3 4 1018.9 - 0.0
20/10:00pm 12.6 8.1 -6.4 26 6.9 SSW 9 11 5 6 1018.8 - 0.0

Other Formats:

Comma delimited format used in spreadsheet applications
http://www.bom.gov.au/fwo/IDQ60801/IDQ60801.94274.axf

JavaScript Object Notation format (JSON) in row-major order
http://www.bom.gov.au/fwo/IDQ60801/IDQ60801.94274.json